Time;durP1;ratioP1;P1;durP2;ratioP2;P2;SDS_P1;SDS_P2;PMS_P1;PMS_P2;Temp;Humidity;BMP_temperature;BMP_pressure;BME280_temperature;BME280_humidity;BME280_pressure;Samples;Min_cycle;Max_cycle;Signal;HPM_P1;HPM_P2
2021/12/09 00:01:02;;;;;;;13.10;5.78;;;3.90;99.90;;;;;;5085744;28;20092;-78
2021/12/09 00:03:35;;;;;;;15.60;6.20;;;3.80;99.90;;;;;;5063600;28;20057;-78
2021/12/09 00:06:02;;;;;;;10.85;5.53;;;3.90;99.90;;;;;;5065709;28;20705;-78
2021/12/09 00:08:29;;;;;;;12.23;5.10;;;3.90;99.90;;;;;;5086347;28;20057;-78
2021/12/09 00:10:58;;;;;;;11.82;5.75;;;3.90;99.90;;;;;;5067005;28;20058;-78
2021/12/09 00:13:24;;;;;;;12.93;5.53;;;3.90;99.90;;;;;;5065830;28;20047;-78
2021/12/09 00:15:50;;;;;;;18.55;6.30;;;3.90;99.90;;;;;;5080972;28;20040;-78
2021/12/09 00:18:17;;;;;;;10.07;5.80;;;3.90;99.90;;;;;;5085119;28;20043;-77
2021/12/09 00:20:43;;;;;;;11.88;5.80;;;3.90;99.90;;;;;;5069785;28;20036;-78
2021/12/09 00:23:08;;;;;;;11.60;5.38;;;3.90;99.90;;;;;;5084202;28;20474;-78
2021/12/09 00:25:35;;;;;;;13.15;6.10;;;3.90;99.90;;;;;;5081507;28;20030;-78
2021/12/09 00:28:01;;;;;;;10.30;4.85;;;3.90;99.90;;;;;;5083614;28;20035;-78
2021/12/09 00:30:29;;;;;;;15.30;6.88;;;3.90;99.90;;;;;;5085959;28;20044;-78
2021/12/09 00:32:55;;;;;;;11.48;5.90;;;3.90;99.90;;;;;;5084578;28;20052;-78
2021/12/09 00:35:26;;;;;;;10.63;5.68;;;3.90;99.90;;;;;;5087096;28;20048;-78
2021/12/09 00:37:57;;;;;;;13.45;5.88;;;3.90;99.90;;;;;;5083270;28;20040;-78
2021/12/09 00:40:23;;;;;;;15.73;6.28;;;3.90;99.90;;;;;;5085250;28;20146;-78
2021/12/09 00:42:48;;;;;;;14.90;6.00;;;3.90;99.90;;;;;;5067295;28;20052;-78
2021/12/09 00:45:14;;;;;;;10.38;5.10;;;3.80;99.90;;;;;;5084296;28;20024;-78
2021/12/09 00:47:41;;;;;;;10.48;6.32;;;3.80;99.90;;;;;;5083555;28;20036;-78
2021/12/09 00:50:08;;;;;;;12.98;5.55;;;3.80;99.90;;;;;;5086755;28;20431;-78
2021/12/09 00:52:33;;;;;;;11.27;6.13;;;3.80;99.90;;;;;;5068460;28;20420;-78
2021/12/09 00:54:59;;;;;;;10.65;6.00;;;3.80;99.90;;;;;;5066209;28;20046;-78
2021/12/09 00:57:26;;;;;;;12.93;5.85;;;3.80;99.90;;;;;;5083743;28;20058;-77
2021/12/09 00:59:51;;;;;;;10.02;5.78;;;3.80;99.90;;;;;;5083362;28;20035;-78
2021/12/09 01:02:18;;;;;;;12.05;6.22;;;3.80;99.90;;;;;;5083768;28;20412;-78
2021/12/09 01:04:45;;;;;;;10.43;6.05;;;3.70;99.90;;;;;;5082118;28;20040;-78
2021/12/09 01:07:10;;;;;;;13.50;6.00;;;3.70;99.90;;;;;;5085334;28;20043;-78
2021/12/09 01:09:36;;;;;;;13.30;6.05;;;3.70;99.90;;;;;;5084328;28;20040;-78
2021/12/09 01:12:04;;;;;;;9.65;6.30;;;3.70;99.90;;;;;;5085611;28;20032;-78
2021/12/09 01:14:29;;;;;;;11.57;6.43;;;3.70;99.90;;;;;;5066953;28;20409;-78
2021/12/09 01:16:55;;;;;;;11.75;5.97;;;3.70;99.90;;;;;;5086339;28;20044;-78
2021/12/09 01:19:21;;;;;;;13.15;6.35;;;3.70;99.90;;;;;;5083388;28;20032;-78
2021/12/09 01:21:46;;;;;;;11.27;6.47;;;3.70;99.90;;;;;;5083323;28;20068;-78
2021/12/09 01:24:12;;;;;;;11.35;5.55;;;3.70;99.90;;;;;;5083748;28;20537;-78
2021/12/09 01:26:37;;;;;;;14.38;6.10;;;3.70;99.90;;;;;;5086063;28;20085;-77
2021/12/09 01:29:12;;;;;;;12.95;6.60;;;3.70;99.90;;;;;;5084895;28;20173;-78
2021/12/09 01:31:40;;;;;;;12.63;6.20;;;3.70;99.90;;;;;;5067195;28;20032;-78
2021/12/09 01:34:07;;;;;;;14.43;6.57;;;3.70;99.90;;;;;;5086031;28;20096;-77
2021/12/09 01:36:35;;;;;;;16.83;6.47;;;3.60;99.90;;;;;;5073256;28;20050;-78
2021/12/09 01:39:05;;;;;;;19.67;6.82;;;3.60;99.90;;;;;;5072075;28;20059;-78
2021/12/09 01:41:31;;;;;;;12.35;6.10;;;3.60;99.90;;;;;;5086393;28;20397;-78
2021/12/09 01:43:58;;;;;;;15.35;6.57;;;3.60;99.90;;;;;;5084793;28;20507;-78
2021/12/09 01:46:23;;;;;;;13.20;6.22;;;3.70;99.90;;;;;;5072059;28;20044;-78
2021/12/09 01:48:52;;;;;;;12.80;6.32;;;3.70;99.90;;;;;;5070915;28;20077;-78
2021/12/09 01:51:19;;;;;;;13.02;6.10;;;3.60;99.90;;;;;;5087948;28;20044;-78
2021/12/09 01:53:45;;;;;;;13.32;7.13;;;3.60;99.90;;;;;;5071131;28;20416;-78
2021/12/09 01:56:20;;;;;;;15.80;7.18;;;3.60;99.90;;;;;;5085843;28;20677;-78
2021/12/09 01:58:47;;;;;;;12.48;6.63;;;3.60;99.90;;;;;;5088166;28;20055;-78
2021/12/09 02:01:13;;;;;;;11.52;6.28;;;3.60;99.90;;;;;;5083826;28;20039;-78
2021/12/09 02:03:38;;;;;;;16.52;6.80;;;3.60;99.90;;;;;;5083359;28;20032;-78
2021/12/09 02:06:04;;;;;;;15.95;6.32;;;3.60;99.90;;;;;;5087925;28;20028;-77
2021/12/09 02:08:30;;;;;;;15.52;6.72;;;3.50;99.90;;;;;;5072867;28;20040;-78
2021/12/09 02:10:56;;;;;;;11.23;6.72;;;3.50;99.90;;;;;;5088860;28;20601;-78
2021/12/09 02:13:22;;;;;;;14.25;7.00;;;3.50;99.90;;;;;;5106768;28;20039;-78
2021/12/09 02:15:48;;;;;;;15.00;7.75;;;3.50;99.90;;;;;;5069313;28;20035;-78
2021/12/09 02:18:14;;;;;;;11.77;7.07;;;3.40;99.90;;;;;;5088968;28;20028;-78
2021/12/09 02:20:44;;;;;;;12.80;6.68;;;3.40;99.90;;;;;;5072263;28;20424;-78
2021/12/09 02:23:12;;;;;;;13.73;7.45;;;3.40;99.90;;;;;;5089563;28;20091;-78
2021/12/09 02:25:44;;;;;;;14.10;6.93;;;3.40;99.90;;;;;;5084199;28;20025;-77
2021/12/09 02:28:11;;;;;;;12.98;6.70;;;3.40;99.90;;;;;;5089970;28;20054;-78
2021/12/09 02:30:37;;;;;;;13.13;7.18;;;3.40;99.90;;;;;;5086112;28;20127;-78
2021/12/09 02:33:03;;;;;;;15.32;7.68;;;3.40;99.90;;;;;;5087118;28;20120;-79
2021/12/09 02:35:28;;;;;;;14.65;7.50;;;3.40;99.90;;;;;;5072243;28;20040;-78
2021/12/09 02:37:54;;;;;;;14.85;7.53;;;3.50;99.90;;;;;;5071949;28;20477;-78
2021/12/09 02:40:20;;;;;;;15.82;7.75;;;3.40;99.90;;;;;;5088405;28;20075;-78
2021/12/09 02:42:47;;;;;;;18.27;7.13;;;3.40;99.90;;;;;;5064369;28;20136;-78
2021/12/09 02:45:12;;;;;;;15.98;7.53;;;3.40;99.90;;;;;;5085713;28;20119;-78
2021/12/09 02:47:38;;;;;;;13.55;7.40;;;3.40;99.90;;;;;;5088718;28;20119;-78
2021/12/09 02:50:06;;;;;;;13.85;7.95;;;3.40;99.90;;;;;;5071337;28;20035;-78
2021/12/09 02:52:32;;;;;;;15.35;7.97;;;3.40;99.90;;;;;;5087065;28;20444;-78
2021/12/09 02:54:58;;;;;;;14.90;8.02;;;3.40;99.90;;;;;;5085562;28;20036;-78
2021/12/09 02:57:24;;;;;;;17.63;7.78;;;3.40;99.90;;;;;;5087016;28;20044;-78
2021/12/09 02:59:50;;;;;;;12.07;7.82;;;3.40;99.90;;;;;;5087217;28;20039;-78
2021/12/09 03:02:15;;;;;;;13.63;7.22;;;3.40;99.90;;;;;;5087779;28;20044;-78
2021/12/09 03:04:47;;;;;;;12.88;8.00;;;3.40;99.90;;;;;;5087709;28;20443;-78
2021/12/09 03:07:23;;;;;;;15.35;8.05;;;3.40;99.90;;;;;;5070913;28;20074;-78
2021/12/09 03:09:52;;;;;;;17.15;7.75;;;3.40;99.90;;;;;;5069656;28;20039;-78
2021/12/09 03:12:30;;;;;;;15.40;7.50;;;3.40;99.90;;;;;;5086273;28;20055;-78
2021/12/09 03:14:57;;;;;;;12.18;7.35;;;3.30;99.90;;;;;;5085713;28;20510;-78
2021/12/09 03:17:23;;;;;;;15.73;8.07;;;3.40;99.90;;;;;;5071141;28;20048;-78
2021/12/09 03:19:50;;;;;;;17.90;8.07;;;3.30;99.90;;;;;;5070550;28;20044;-78
2021/12/09 03:22:17;;;;;;;15.15;8.25;;;3.30;99.90;;;;;;5087268;28;20104;-78
2021/12/09 03:24:43;;;;;;;15.05;9.32;;;3.30;99.90;;;;;;5088583;28;20032;-78
2021/12/09 03:27:09;;;;;;;14.98;8.23;;;3.30;99.90;;;;;;5085368;28;20493;-78
2021/12/09 03:29:35;;;;;;;17.45;9.45;;;3.30;99.90;;;;;;5096141;28;20127;-78
2021/12/09 03:32:05;;;;;;;15.50;8.10;;;3.30;99.90;;;;;;5087830;28;20122;-78
2021/12/09 03:34:32;;;;;;;16.80;8.55;;;3.30;99.90;;;;;;5070993;28;20044;-78
2021/12/09 03:37:02;;;;;;;17.10;8.80;;;3.20;99.90;;;;;;5086178;28;20073;-78
2021/12/09 03:39:31;;;;;;;17.50;9.65;;;3.30;99.90;;;;;;5074543;28;20049;-78
2021/12/09 03:41:57;;;;;;;13.02;7.90;;;3.20;99.90;;;;;;5087600;28;20039;-78
2021/12/09 03:44:24;;;;;;;17.00;8.85;;;3.30;99.90;;;;;;5084305;28;20032;-78
2021/12/09 03:46:52;;;;;;;13.18;8.38;;;3.30;99.90;;;;;;5069491;28;20874;-78
2021/12/09 03:49:19;;;;;;;16.95;8.50;;;3.30;99.90;;;;;;5069436;28;20459;-78
2021/12/09 03:51:45;;;;;;;18.30;9.05;;;3.20;99.90;;;;;;5085302;28;20036;-78
2021/12/09 03:54:12;;;;;;;16.27;8.90;;;3.30;99.90;;;;;;5086364;28;20055;-78
2021/12/09 03:56:38;;;;;;;14.15;8.13;;;3.20;99.90;;;;;;5069531;28;20119;-78
2021/12/09 03:59:10;;;;;;;17.63;8.73;;;3.20;99.90;;;;;;5067637;28;20036;-78
2021/12/09 04:01:37;;;;;;;16.90;8.02;;;3.20;99.90;;;;;;5087219;28;21206;-78
2021/12/09 04:04:03;;;;;;;17.88;9.40;;;3.20;99.90;;;;;;5087175;28;20486;-78
2021/12/09 04:06:29;;;;;;;16.30;9.50;;;3.20;99.90;;;;;;5068958;28;20385;-78
2021/12/09 04:08:59;;;;;;;17.17;9.18;;;3.20;99.90;;;;;;5086756;28;20032;-78
2021/12/09 04:11:25;;;;;;;14.15;8.48;;;3.20;99.90;;;;;;5069684;28;20047;-78
2021/12/09 04:13:51;;;;;;;17.17;8.40;;;3.20;99.90;;;;;;5086466;28;20043;-78
2021/12/09 04:16:16;;;;;;;17.95;8.60;;;3.20;99.90;;;;;;5069645;28;20044;-78
2021/12/09 04:18:44;;;;;;;17.42;9.32;;;3.20;99.90;;;;;;5065287;28;20460;-78
2021/12/09 04:21:12;;;;;;;18.23;9.50;;;3.20;99.90;;;;;;5067350;28;20557;-78
2021/12/09 04:23:38;;;;;;;17.92;8.57;;;3.20;99.90;;;;;;5086882;28;20492;-78
2021/12/09 04:26:04;;;;;;;17.88;9.48;;;3.20;99.90;;;;;;5069283;28;20035;-78
2021/12/09 04:28:30;;;;;;;18.52;8.70;;;3.20;99.90;;;;;;5083800;28;20047;-78
2021/12/09 04:30:56;;;;;;;15.73;8.60;;;3.20;99.90;;;;;;5068878;28;20085;-78
2021/12/09 04:33:22;;;;;;;20.38;10.10;;;3.20;99.90;;;;;;5087259;28;20040;-78
2021/12/09 04:35:48;;;;;;;16.58;9.45;;;3.20;99.90;;;;;;5081397;28;20043;-78
2021/12/09 04:38:14;;;;;;;16.73;9.80;;;3.20;99.90;;;;;;5087486;28;20085;-78
2021/12/09 04:40:39;;;;;;;17.98;9.73;;;3.20;99.90;;;;;;5069047;28;20048;-78
2021/12/09 04:43:05;;;;;;;17.38;9.00;;;3.20;99.90;;;;;;5085932;28;20092;-78
2021/12/09 04:45:34;;;;;;;18.73;9.98;;;3.20;99.90;;;;;;5085772;28;20034;-78
2021/12/09 04:48:00;;;;;;;16.70;9.52;;;3.20;99.90;;;;;;5086509;28;20389;-78
2021/12/09 04:50:26;;;;;;;18.10;10.00;;;3.10;99.90;;;;;;5065318;28;20458;-78
2021/12/09 04:52:52;;;;;;;18.98;9.82;;;3.20;99.90;;;;;;5087122;28;20044;-78
2021/12/09 04:55:17;;;;;;;15.48;9.45;;;3.10;99.90;;;;;;5087039;28;20124;-78
2021/12/09 04:57:43;;;;;;;17.95;9.82;;;3.20;99.90;;;;;;5086055;28;20548;-78
2021/12/09 05:00:14;;;;;;;16.80;9.45;;;3.10;99.90;;;;;;5083818;28;20055;-78
2021/12/09 05:05:14;;;;;;;18.42;9.43;;;3.10;99.90;;;;;;5101336;28;20524;-78
2021/12/09 05:07:40;;;;;;;18.63;9.90;;;3.10;99.90;;;;;;5069506;28;20032;-77
2021/12/09 05:10:06;;;;;;;21.63;9.45;;;3.20;99.90;;;;;;5086797;28;20028;-78
2021/12/09 05:12:32;;;;;;;18.38;10.00;;;3.10;99.90;;;;;;5067558;28;20056;-78
2021/12/09 05:14:57;;;;;;;16.75;9.13;;;3.10;99.90;;;;;;5065959;28;20050;-78
2021/12/09 05:17:23;;;;;;;16.48;8.93;;;3.10;99.90;;;;;;5068623;28;20036;-78
2021/12/09 05:19:49;;;;;;;16.67;9.27;;;3.10;99.90;;;;;;5067125;28;20119;-78
2021/12/09 05:22:15;;;;;;;13.05;9.07;;;3.10;99.90;;;;;;5068163;28;20540;-78
2021/12/09 05:24:41;;;;;;;16.95;9.30;;;3.10;99.90;;;;;;5069555;28;20036;-78
2021/12/09 05:27:07;;;;;;;20.80;9.48;;;3.10;99.90;;;;;;5083822;28;20039;-78
2021/12/09 05:29:39;;;;;;;16.30;9.15;;;3.10;99.90;;;;;;5084354;28;20032;-78
2021/12/09 05:32:11;;;;;;;19.42;9.77;;;3.10;99.90;;;;;;5086039;28;20050;-78
2021/12/09 05:34:43;;;;;;;19.27;9.68;;;3.00;99.90;;;;;;5060330;28;20032;-78
2021/12/09 05:37:13;;;;;;;18.67;9.05;;;3.10;99.90;;;;;;5067983;28;20032;-78
2021/12/09 05:39:41;;;;;;;20.77;8.93;;;3.10;99.90;;;;;;5068262;28;20040;-78
2021/12/09 05:42:08;;;;;;;23.38;10.13;;;3.10;99.90;;;;;;5066318;28;20036;-78
2021/12/09 05:44:34;;;;;;;17.17;9.55;;;3.10;99.90;;;;;;5081866;28;20043;-78
2021/12/09 05:47:02;;;;;;;16.52;8.70;;;3.00;99.90;;;;;;5085336;28;20160;-78
2021/12/09 05:49:28;;;;;;;17.80;9.05;;;3.00;99.90;;;;;;5086373;28;20048;-78
2021/12/09 05:51:54;;;;;;;16.83;9.02;;;3.00;99.90;;;;;;5085503;28;20035;-78
2021/12/09 05:54:20;;;;;;;19.02;10.27;;;3.00;99.90;;;;;;5068697;28;20489;-78
2021/12/09 05:56:45;;;;;;;16.58;9.32;;;3.00;99.90;;;;;;5085196;28;20122;-77
2021/12/09 05:59:11;;;;;;;18.88;9.73;;;3.00;99.90;;;;;;5085796;28;20677;-78
2021/12/09 06:01:39;;;;;;;22.38;10.30;;;2.90;99.90;;;;;;5068171;28;20032;-78
2021/12/09 06:04:06;;;;;;;18.35;9.70;;;2.90;99.90;;;;;;5082907;28;20085;-78
2021/12/09 06:06:32;;;;;;;16.60;8.30;;;2.90;99.90;;;;;;5064758;28;20055;-78
2021/12/09 06:08:58;;;;;;;18.88;9.75;;;2.90;99.90;;;;;;5084426;28;20036;-78
2021/12/09 06:11:23;;;;;;;18.02;9.68;;;2.90;99.90;;;;;;5070122;28;20063;-78
2021/12/09 06:13:49;;;;;;;20.73;9.07;;;2.90;99.90;;;;;;5080931;28;20043;-78
2021/12/09 06:16:16;;;;;;;20.38;9.95;;;2.90;99.90;;;;;;5095917;28;20036;-78
2021/12/09 06:18:42;;;;;;;24.17;9.68;;;2.80;99.90;;;;;;5066106;28;20089;-77
2021/12/09 06:21:07;;;;;;;16.33;9.50;;;2.90;99.90;;;;;;5070232;28;20130;-78
2021/12/09 06:23:34;;;;;;;19.10;9.82;;;2.90;99.90;;;;;;5071346;28;20033;-78
2021/12/09 06:25:59;;;;;;;16.52;8.38;;;2.90;99.90;;;;;;5067426;28;20047;-78
2021/12/09 06:28:25;;;;;;;15.15;8.93;;;2.90;99.90;;;;;;5086302;28;20040;-78
2021/12/09 06:30:51;;;;;;;19.35;9.05;;;2.80;99.90;;;;;;5086640;28;20032;-78
2021/12/09 06:33:17;;;;;;;21.23;10.60;;;2.80;99.90;;;;;;5060973;28;20470;-78
2021/12/09 06:35:42;;;;;;;21.00;9.80;;;2.80;99.90;;;;;;5086462;28;20067;-78
2021/12/09 06:38:12;;;;;;;17.88;9.05;;;2.80;99.90;;;;;;5071188;28;20435;-77
2021/12/09 06:40:38;;;;;;;16.63;9.48;;;2.80;99.90;;;;;;5084887;28;20071;-78
2021/12/09 06:43:04;;;;;;;15.75;10.00;;;2.80;99.90;;;;;;5071428;28;20213;-78
2021/12/09 06:45:30;;;;;;;18.13;10.50;;;2.70;99.90;;;;;;5068380;28;20036;-78
2021/12/09 06:47:56;;;;;;;15.05;9.68;;;2.80;99.90;;;;;;5088825;28;20032;-78
2021/12/09 06:50:23;;;;;;;19.05;10.27;;;2.70;99.90;;;;;;5087269;28;20040;-78
2021/12/09 06:52:49;;;;;;;20.77;9.75;;;2.80;99.90;;;;;;5071235;28;20114;-78
2021/12/09 06:55:17;;;;;;;20.20;9.60;;;2.70;99.90;;;;;;5068104;28;20036;-78
2021/12/09 06:57:44;;;;;;;17.30;9.40;;;2.70;99.90;;;;;;5088781;28;20046;-78
2021/12/09 07:00:14;;;;;;;18.75;9.52;;;2.70;99.90;;;;;;5086566;28;20047;-78
2021/12/09 07:02:39;;;;;;;15.02;8.85;;;2.80;99.90;;;;;;5082933;28;20036;-78
2021/12/09 07:05:07;;;;;;;17.55;9.07;;;2.80;99.90;;;;;;5069133;28;20024;-78
2021/12/09 07:07:33;;;;;;;19.40;9.85;;;2.80;99.90;;;;;;5071912;28;20040;-78
2021/12/09 07:09:59;;;;;;;19.33;10.27;;;2.70;99.90;;;;;;5070130;28;20070;-78
2021/12/09 07:12:25;;;;;;;17.25;9.40;;;2.70;99.90;;;;;;5085567;28;20123;-78
2021/12/09 07:14:51;;;;;;;15.60;9.35;;;2.80;99.90;;;;;;5083497;28;20185;-78
2021/12/09 07:17:17;;;;;;;16.45;8.98;;;2.70;99.90;;;;;;5085886;28;20117;-78
2021/12/09 07:19:43;;;;;;;18.67;9.60;;;2.70;99.90;;;;;;5062959;28;20035;-78
2021/12/09 07:22:09;;;;;;;20.42;8.82;;;2.70;99.90;;;;;;5062249;28;20039;-78
2021/12/09 07:24:35;;;;;;;19.80;8.52;;;2.70;99.90;;;;;;5068031;28;20079;-78
2021/12/09 07:27:01;;;;;;;22.38;10.27;;;2.70;99.90;;;;;;5068299;28;20119;-78
2021/12/09 07:29:28;;;;;;;16.05;8.75;;;2.70;99.90;;;;;;5087359;28;20036;-78
2021/12/09 07:31:54;;;;;;;16.00;9.32;;;2.70;99.90;;;;;;5085137;28;20042;-78
2021/12/09 07:34:21;;;;;;;19.00;9.13;;;2.70;99.90;;;;;;5067114;28;20544;-77
2021/12/09 07:36:47;;;;;;;21.80;9.55;;;2.70;99.90;;;;;;5067467;28;20032;-78
2021/12/09 07:39:13;;;;;;;20.73;9.55;;;2.60;99.90;;;;;;5082900;28;20032;-78
2021/12/09 07:41:39;;;;;;;21.17;9.73;;;2.60;99.90;;;;;;5087341;28;20492;-78
2021/12/09 07:44:05;;;;;;;17.48;9.57;;;2.60;99.90;;;;;;5085322;28;20040;-79
2021/12/09 07:46:34;;;;;;;18.05;8.98;;;2.70;99.90;;;;;;5089122;28;20374;-78
2021/12/09 07:48:59;;;;;;;14.77;8.38;;;2.70;99.90;;;;;;5085965;28;20044;-78
2021/12/09 07:51:25;;;;;;;21.17;9.07;;;2.70;99.90;;;;;;5087394;28;20032;-78
2021/12/09 07:53:51;;;;;;;16.75;8.63;;;2.70;99.90;;;;;;5063549;28;20031;-77
2021/12/09 07:56:18;;;;;;;16.73;9.80;;;2.70;99.90;;;;;;5083851;28;20105;-78
2021/12/09 07:58:43;;;;;;;16.83;9.20;;;2.70;99.90;;;;;;5071262;28;20451;-78
2021/12/09 08:01:10;;;;;;;23.23;8.95;;;2.70;99.90;;;;;;5066688;28;20051;-78
2021/12/09 08:03:36;;;;;;;18.73;8.80;;;2.70;99.90;;;;;;5080421;28;20055;-79
2021/12/09 08:06:03;;;;;;;20.58;9.45;;;2.70;99.90;;;;;;5085478;28;20093;-79
2021/12/09 08:08:29;;;;;;;13.77;8.10;;;2.70;99.90;;;;;;5083929;28;20039;-78
2021/12/09 08:10:54;;;;;;;18.02;8.98;;;2.70;99.90;;;;;;5084547;28;20127;-78
2021/12/09 08:13:22;;;;;;;18.83;8.75;;;2.70;99.90;;;;;;5086413;28;20471;-78
2021/12/09 08:15:49;;;;;;;17.60;9.35;;;2.70;99.90;;;;;;5079391;28;20102;-78
2021/12/09 08:20:47;;;;;;;18.35;8.68;;;2.70;99.90;;;;;;5082200;28;20122;-79
2021/12/09 08:23:13;;;;;;;14.40;8.43;;;2.70;99.90;;;;;;5082886;28;20039;-79
2021/12/09 08:25:39;;;;;;;22.05;8.77;;;2.70;99.90;;;;;;5069338;28;20157;-79
2021/12/09 08:28:05;;;;;;;17.55;9.40;;;2.80;99.90;;;;;;5082112;28;20034;-78
2021/12/09 08:30:31;;;;;;;19.92;8.95;;;2.70;99.90;;;;;;5066419;28;20044;-78
2021/12/09 08:32:57;;;;;;;14.10;8.43;;;2.80;99.90;;;;;;5075467;28;20047;-78
2021/12/09 08:35:23;;;;;;;22.65;9.98;;;2.80;99.90;;;;;;5079833;28;20437;-78
2021/12/09 08:37:49;;;;;;;21.33;9.30;;;2.80;99.90;;;;;;5079832;28;20044;-78
2021/12/09 08:40:16;;;;;;;17.63;9.20;;;2.80;99.90;;;;;;5064046;28;20071;-78
2021/12/09 08:42:43;;;;;;;16.70;8.27;;;2.80;99.90;;;;;;5093304;28;20044;-78
2021/12/09 08:45:10;;;;;;;17.98;8.77;;;2.80;99.90;;;;;;5081071;28;20031;-78
2021/12/09 08:47:41;;;;;;;17.73;8.35;;;2.80;99.90;;;;;;5087957;28;20066;-78
2021/12/09 08:50:10;;;;;;;15.90;7.63;;;2.80;99.90;;;;;;5069731;28;20036;-78
2021/12/09 08:52:36;;;;;;;20.10;9.07;;;2.80;99.90;;;;;;5087486;28;20040;-79
2021/12/09 08:55:03;;;;;;;16.50;8.52;;;2.80;99.90;;;;;;5087112;28;20086;-78
2021/12/09 08:57:31;;;;;;;18.88;8.45;;;2.80;99.90;;;;;;5070953;28;20039;-78
2021/12/09 08:59:58;;;;;;;22.15;9.07;;;2.90;99.90;;;;;;5068062;28;20074;-78
2021/12/09 09:02:23;;;;;;;12.82;7.57;;;2.90;99.90;;;;;;5070170;28;20436;-78
2021/12/09 09:04:49;;;;;;;19.48;8.60;;;2.90;99.90;;;;;;5070063;28;20044;-78
2021/12/09 09:07:14;;;;;;;17.27;8.52;;;2.90;99.90;;;;;;5087178;28;20086;-78
2021/12/09 09:09:40;;;;;;;17.40;8.80;;;2.90;99.90;;;;;;5086088;28;20036;-78
2021/12/09 09:12:10;;;;;;;15.65;7.80;;;2.90;99.90;;;;;;5086899;28;20509;-78
2021/12/09 09:14:36;;;;;;;16.25;7.97;;;2.90;99.90;;;;;;5069491;28;20043;-78
2021/12/09 09:17:03;;;;;;;18.83;8.73;;;3.00;99.90;;;;;;5067860;28;20038;-78
2021/12/09 09:19:29;;;;;;;15.48;7.97;;;3.00;99.90;;;;;;5070886;28;20044;-78
2021/12/09 09:21:55;;;;;;;14.65;8.48;;;2.90;99.90;;;;;;5087991;28;20036;-78
2021/12/09 09:24:21;;;;;;;16.55;8.00;;;3.00;99.90;;;;;;5063729;28;20098;-78
2021/12/09 09:26:48;;;;;;;14.50;7.80;;;3.00;99.90;;;;;;5074376;28;20481;-78
2021/12/09 09:29:14;;;;;;;13.65;7.88;;;3.00;99.90;;;;;;5086658;28;20503;-78
2021/12/09 09:31:40;;;;;;;15.02;7.68;;;3.10;99.90;;;;;;5086076;28;20068;-78
2021/12/09 09:34:08;;;;;;;17.70;7.60;;;3.10;99.90;;;;;;5069154;28;20044;-78
2021/12/09 09:36:39;;;;;;;14.35;7.32;;;3.10;99.90;;;;;;5070922;28;20044;-78
2021/12/09 09:39:11;;;;;;;16.15;7.82;;;3.10;99.90;;;;;;5086893;28;20056;-78
2021/12/09 09:41:37;;;;;;;15.70;7.05;;;3.10;99.90;;;;;;5087786;28;20122;-78
2021/12/09 09:44:13;;;;;;;14.45;7.43;;;3.10;99.90;;;;;;5069413;28;20123;-78
2021/12/09 09:46:40;;;;;;;16.27;7.18;;;3.10;99.90;;;;;;5086748;28;20525;-78
2021/12/09 09:49:06;;;;;;;15.13;7.18;;;3.10;99.90;;;;;;5082632;28;20500;-78
2021/12/09 09:51:33;;;;;;;18.08;7.20;;;3.10;99.90;;;;;;5058263;28;20075;-78
2021/12/09 09:54:00;;;;;;;15.18;7.60;;;3.10;99.90;;;;;;5067865;28;20357;-78
2021/12/09 09:56:27;;;;;;;15.73;7.80;;;3.10;99.90;;;;;;5071567;28;20089;-79
2021/12/09 09:58:59;;;;;;;15.38;7.18;;;3.20;99.90;;;;;;5088578;28;20043;-78
2021/12/09 10:01:26;;;;;;;15.45;7.63;;;3.20;99.90;;;;;;5078247;28;20036;-78
2021/12/09 10:03:59;;;;;;;15.55;7.55;;;3.20;99.90;;;;;;5067539;28;20060;-80
2021/12/09 10:06:25;;;;;;;18.45;7.97;;;3.20;99.90;;;;;;5082948;28;20140;-79
2021/12/09 10:08:51;;;;;;;15.82;7.68;;;3.30;99.90;;;;;;5072345;28;20077;-79
2021/12/09 10:11:17;;;;;;;14.90;7.90;;;3.20;99.90;;;;;;5088538;28;20035;-79
2021/12/09 10:13:43;;;;;;;13.88;7.18;;;3.30;99.90;;;;;;5089099;28;20474;-79
2021/12/09 10:16:17;;;;;;;15.32;7.22;;;3.30;99.90;;;;;;5072197;28;20040;-79
2021/12/09 10:18:45;;;;;;;17.67;7.85;;;3.30;99.90;;;;;;5066763;28;20297;-79
2021/12/09 10:21:29;;;;;;;17.52;7.57;;;3.30;99.90;;;;;;5087757;28;20406;-79
2021/12/09 10:24:04;;;;;;;13.70;6.97;;;3.30;99.90;;;;;;5082156;28;20067;-79
2021/12/09 10:26:39;;;;;;;15.02;6.68;;;3.30;99.90;;;;;;5065139;28;20043;-79
2021/12/09 10:29:25;;;;;;;17.80;7.50;;;3.30;99.90;;;;;;5086943;28;20039;-82
2021/12/09 10:32:01;;;;;;;16.10;7.80;;;3.40;99.90;;;;;;5089216;28;20024;-85
2021/12/09 10:34:41;;;;;;;16.55;6.78;;;3.40;99.90;;;;;;5088360;28;20043;-81
2021/12/09 10:37:14;;;;;;;14.32;7.18;;;3.40;99.90;;;;;;5075366;28;20048;-78
2021/12/09 10:40:08;;;;;;;17.60;7.15;;;3.40;99.90;;;;;;5078697;28;20040;-78
2021/12/09 10:42:48;;;;;;;17.92;7.03;;;3.50;99.90;;;;;;5084100;28;20501;-78
2021/12/09 10:45:14;;;;;;;22.23;8.23;;;3.50;99.90;;;;;;5073435;28;20450;-78
2021/12/09 10:50:36;;;;;;;13.77;7.55;;;3.50;99.90;;;;;;5076043;28;20032;-78
2021/12/09 10:56:09;;;;;;;17.30;8.25;;;3.60;99.90;;;;;;5075322;28;20052;-78
2021/12/09 10:58:37;;;;;;;15.88;7.75;;;3.70;99.90;;;;;;5076591;28;20037;-79
2021/12/09 11:01:05;;;;;;;20.08;8.10;;;3.80;99.90;;;;;;5081291;28;20044;-78
2021/12/09 11:03:35;;;;;;;18.88;8.35;;;3.80;99.90;;;;;;5075722;28;20375;-78
2021/12/09 11:06:06;;;;;;;16.20;7.35;;;3.80;99.90;;;;;;5075371;28;20060;-85
2021/12/09 11:08:43;;;;;;;14.23;8.30;;;3.80;99.90;;;;;;5077021;28;20264;-78
2021/12/09 11:11:32;;;;;;;22.52;9.77;;;3.80;99.90;;;;;;5068845;28;20040;-79
2021/12/09 11:14:02;;;;;;;17.13;7.88;;;3.90;99.90;;;;;;5083638;28;20036;-79
2021/12/09 11:16:38;;;;;;;21.40;8.73;;;3.80;99.90;;;;;;5081518;28;20059;-80
2021/12/09 11:19:20;;;;;;;20.38;10.77;;;3.80;99.90;;;;;;5082877;28;20178;-80
2021/12/09 11:21:55;;;;;;;22.65;10.50;;;3.90;99.90;;;;;;5085812;28;20058;-80
2021/12/09 11:24:22;;;;;;;21.67;10.05;;;3.90;99.90;;;;;;5084669;28;20059;-80
2021/12/09 11:26:58;;;;;;;25.52;10.43;;;3.90;99.90;;;;;;5085805;28;20040;-79
2021/12/09 11:29:38;;;;;;;;;;;4.00;99.90;;;;;;5066390;28;20173;-80
2021/12/09 11:32:31;;;;;;;25.27;12.05;;;4.00;99.90;;;;;;5067816;28;20385;-79
2021/12/09 11:35:25;;;;;;;21.15;9.75;;;4.00;99.90;;;;;;5060009;28;20071;-79
2021/12/09 11:40:40;;;;;;;22.95;11.45;;;4.10;99.90;;;;;;5096738;28;20056;-81
2021/12/09 11:43:10;;;;;;;19.50;9.73;;;4.10;99.90;;;;;;5085209;28;20037;-81
2021/12/09 11:45:47;;;;;;;19.38;9.88;;;4.10;99.90;;;;;;5081034;28;20500;-79
2021/12/09 11:48:13;;;;;;;22.85;10.82;;;4.20;99.90;;;;;;5064689;28;20058;-79
2021/12/09 11:50:48;;;;;;;23.13;10.80;;;4.20;99.90;;;;;;5068798;28;20032;-78
2021/12/09 11:53:18;;;;;;;21.55;11.65;;;4.20;99.90;;;;;;5096213;28;20068;-79
2021/12/09 11:55:51;;;;;;;19.17;9.93;;;4.20;99.90;;;;;;5085938;28;20066;-82
2021/12/09 12:20:54;;;;;;;19.85;10.10;;;4.20;99.90;;;;;;5086435;28;20040;-79
2021/12/09 12:26:51;;;;;;;19.77;10.43;;;4.20;99.90;;;;;;5076057;28;20111;-79
2021/12/09 12:40:36;;;;;;;21.55;11.20;;;4.20;99.90;;;;;;5098232;27;20090;-79
2021/12/09 12:43:12;;;;;;;21.30;11.75;;;4.20;99.90;;;;;;5071122;28;20468;-79
2021/12/09 12:45:54;;;;;;;22.45;11.07;;;4.20;99.90;;;;;;5070263;28;20533;-79
2021/12/09 12:51:21;;;;;;;21.95;11.70;;;4.20;99.90;;;;;;5068344;28;20047;-79
2021/12/09 12:54:21;;;;;;;20.42;10.75;;;4.20;99.90;;;;;;5067872;28;20052;-79
2021/12/09 12:56:55;;;;;;;24.40;12.13;;;4.30;99.90;;;;;;5071732;28;20097;-79
2021/12/09 12:59:37;;;;;;;23.15;12.00;;;4.30;99.90;;;;;;5070707;28;20392;-76
2021/12/09 13:07:37;;;;;;;21.50;10.75;;;4.30;99.90;;;;;;5087632;28;20040;-79
2021/12/09 13:10:29;;;;;;;21.80;10.98;;;4.30;99.90;;;;;;5086680;28;20063;-78
2021/12/09 13:19:19;;;;;;;27.40;12.32;;;4.40;99.90;;;;;;5087610;28;20063;-78
2021/12/09 13:21:54;;;;;;;33.88;14.68;;;4.30;99.90;;;;;;5087744;28;20165;-78
2021/12/09 13:24:27;;;;;;;;;;;4.40;99.90;;;;;;5070665;28;20049;-78
2021/12/09 13:27:02;;;;;;;24.65;11.65;;;4.40;99.90;;;;;;5087548;28;19961;-78
2021/12/09 13:29:36;;;;;;;;;;;4.40;99.90;;;;;;5088811;28;20403;-78
2021/12/09 13:32:19;;;;;;;29.70;12.60;;;4.50;99.90;;;;;;5075153;28;19916;-78
2021/12/09 13:35:01;;;;;;;28.70;13.15;;;4.50;99.90;;;;;;5091732;28;20067;-78
2021/12/09 13:37:53;;;;;;;24.15;12.48;;;4.50;99.90;;;;;;5089917;28;20040;-78
2021/12/09 13:40:28;;;;;;;26.05;14.27;;;4.50;99.90;;;;;;5085854;28;20510;-85
2021/12/09 13:48:22;;;;;;;28.60;13.63;;;4.60;99.90;;;;;;5081800;28;20556;-82
2021/12/09 13:55:58;;;;;;;25.20;12.73;;;4.50;99.90;;;;;;5076143;28;20044;-80
2021/12/09 13:58:24;;;;;;;26.60;12.38;;;4.60;99.90;;;;;;5085996;28;20543;-79
2021/12/09 14:00:51;;;;;;;30.15;13.43;;;4.60;99.90;;;;;;5081938;28;20043;-80
2021/12/09 14:03:20;;;;;;;24.33;12.32;;;4.60;99.90;;;;;;5065723;28;20032;-78
2021/12/09 14:06:09;;;;;;;26.02;12.70;;;4.60;99.90;;;;;;5078563;28;20043;-81
2021/12/09 14:08:42;;;;;;;24.08;12.15;;;4.60;99.90;;;;;;5068772;28;20040;-79